createdAt,value
2018-05-08T00:02:07.613Z,3.60
2018-05-08T00:04:36.451Z,3.90
2018-05-08T00:07:04.495Z,3.83
2018-05-08T00:09:32.553Z,4.73
2018-05-08T00:12:00.673Z,3.63
2018-05-08T00:14:28.737Z,4.00
2018-05-08T00:16:56.776Z,3.90
2018-05-08T00:19:24.845Z,5.00
2018-05-08T00:21:52.909Z,4.00
2018-05-08T00:24:20.946Z,4.37
2018-05-08T00:26:50.180Z,3.20
2018-05-08T00:29:19.012Z,3.83
2018-05-08T00:31:47.035Z,4.00
2018-05-08T00:34:15.086Z,4.13
2018-05-08T00:36:43.122Z,4.43
2018-05-08T00:39:11.248Z,4.20
2018-05-08T00:41:39.298Z,4.90
2018-05-08T00:44:07.350Z,4.00
2018-05-08T00:46:35.406Z,4.70
2018-05-08T00:49:03.492Z,3.60
2018-05-08T00:51:31.534Z,4.10
2018-05-08T00:53:59.572Z,3.80
2018-05-08T00:56:28.396Z,3.80
2018-05-08T00:58:56.435Z,3.60
2018-05-08T01:01:25.250Z,4.07
2018-05-08T01:03:54.050Z,4.63
2018-05-08T01:06:22.882Z,4.30
2018-05-08T01:08:51.723Z,4.60
2018-05-08T01:11:19.765Z,4.20
2018-05-08T01:13:47.825Z,4.10
2018-05-08T01:16:16.626Z,4.17
2018-05-08T01:18:44.683Z,4.30
2018-05-08T01:21:13.507Z,4.43
2018-05-08T01:23:42.680Z,4.50
2018-05-08T01:26:11.518Z,4.07
2018-05-08T01:28:39.561Z,3.73
2018-05-08T01:31:07.621Z,4.40
2018-05-08T01:33:35.668Z,4.07
2018-05-08T01:36:04.519Z,4.40
2018-05-08T01:38:32.549Z,4.23
2018-05-08T01:41:00.586Z,4.40
2018-05-08T01:43:28.652Z,4.27
2018-05-08T01:45:56.714Z,5.33
2018-05-08T01:48:25.533Z,4.33
2018-05-08T01:50:54.353Z,4.40
2018-05-08T01:53:23.761Z,4.17
2018-05-08T01:55:52.220Z,4.30
2018-05-08T01:58:20.232Z,3.87
2018-05-08T02:00:48.298Z,5.00
2018-05-08T02:03:16.346Z,4.40
2018-05-08T02:05:44.422Z,4.67
2018-05-08T02:08:12.499Z,4.63
2018-05-08T02:10:40.566Z,5.07
2018-05-08T02:13:08.610Z,4.97
2018-05-08T02:15:37.453Z,4.13
2018-05-08T02:18:05.491Z,5.20
2018-05-08T02:20:33.649Z,4.77
2018-05-08T02:23:01.720Z,5.30
2018-05-08T02:25:30.589Z,4.57
2018-05-08T02:27:59.389Z,4.90
2018-05-08T02:30:28.241Z,5.43
2018-05-08T02:32:56.283Z,5.40
2018-05-08T02:35:24.332Z,3.90
2018-05-08T02:37:53.904Z,5.00
2018-05-08T02:40:21.927Z,5.07
2018-05-08T02:42:49.964Z,4.37
2018-05-08T02:45:18.791Z,4.73
2018-05-08T02:47:46.869Z,4.90
2018-05-08T02:50:14.936Z,4.77
2018-05-08T02:52:42.974Z,4.67
2018-05-08T02:55:11.789Z,4.70
2018-05-08T02:57:39.841Z,5.00
2018-05-08T03:00:07.919Z,5.40
2018-05-08T03:02:36.001Z,5.10
2018-05-08T03:05:04.071Z,4.30
2018-05-08T03:07:32.129Z,5.37
2018-05-08T03:10:00.194Z,5.20
2018-05-08T03:12:28.243Z,4.83
2018-05-08T03:14:56.294Z,5.57
2018-05-08T03:17:24.336Z,5.57
2018-05-08T03:19:52.407Z,5.53
2018-05-08T03:22:20.534Z,5.90
2018-05-08T03:24:48.843Z,5.40
2018-05-08T03:27:16.842Z,6.10
2018-05-08T03:29:44.896Z,5.00
2018-05-08T03:32:12.929Z,6.80
2018-05-08T03:34:41.751Z,5.47
2018-05-08T03:37:09.807Z,6.17
2018-05-08T03:39:37.879Z,6.03
2018-05-08T03:42:05.947Z,5.90
2018-05-08T03:44:34.129Z,6.13
2018-05-08T03:47:02.190Z,5.50
2018-05-08T03:49:30.239Z,5.83
2018-05-08T03:51:58.262Z,6.70
2018-05-08T03:54:26.320Z,5.87
2018-05-08T03:56:54.390Z,5.80
2018-05-08T03:59:22.439Z,6.40
2018-05-08T04:05:08.679Z,5.73
2018-05-08T04:07:48.534Z,5.40
2018-05-08T04:10:16.559Z,4.97
2018-05-08T04:12:46.299Z,5.20
2018-05-08T04:15:14.342Z,5.53
2018-05-08T04:17:43.150Z,5.97
2018-05-08T04:20:11.226Z,5.93
2018-05-08T04:22:40.112Z,6.20
2018-05-08T04:25:08.153Z,5.40
2018-05-08T04:27:37.718Z,5.90
2018-05-08T04:30:05.785Z,5.73
2018-05-08T04:32:33.850Z,6.33
2018-05-08T04:35:01.894Z,5.80
2018-05-08T04:37:31.361Z,6.07
2018-05-08T04:39:59.421Z,6.23
2018-05-08T04:42:27.493Z,6.40
2018-05-08T04:44:55.532Z,6.10
2018-05-08T04:47:23.612Z,6.33
2018-05-08T04:49:51.779Z,6.00
2018-05-08T04:52:20.593Z,5.83
2018-05-08T04:54:49.538Z,5.80
2018-05-08T04:57:18.232Z,6.53
2018-05-08T04:59:46.255Z,6.60
2018-05-08T05:02:14.265Z,6.50
2018-05-08T05:04:43.092Z,6.53
2018-05-08T05:07:11.166Z,7.07
2018-05-08T05:09:39.240Z,7.37
2018-05-08T05:12:07.321Z,7.87
2018-05-08T05:14:35.407Z,7.80
2018-05-08T05:17:03.505Z,7.03
2018-05-08T05:19:31.546Z,7.10
2018-05-08T05:21:59.610Z,6.80
2018-05-08T05:24:27.774Z,6.57
2018-05-08T05:26:55.757Z,7.70
2018-05-08T05:29:23.797Z,7.10
2018-05-08T05:31:51.894Z,6.93
2018-05-08T05:34:19.938Z,8.60
2018-05-08T05:36:48.011Z,7.37
2018-05-08T05:39:16.046Z,5.83
2018-05-08T05:41:44.863Z,5.87
2018-05-08T05:44:12.939Z,6.13
2018-05-08T05:46:40.974Z,6.53
2018-05-08T05:49:09.805Z,6.20
2018-05-08T05:51:37.852Z,6.03
2018-05-08T05:54:05.938Z,6.43
2018-05-08T05:56:34.037Z,6.20
2018-05-08T05:59:02.183Z,5.90
2018-05-08T06:01:30.938Z,6.60
2018-05-08T06:03:59.810Z,7.43
2018-05-08T06:06:27.918Z,5.97
2018-05-08T06:08:55.953Z,6.90
2018-05-08T06:11:24.041Z,5.87
2018-05-08T06:13:52.099Z,6.40
2018-05-08T06:16:20.161Z,6.10
2018-05-08T06:18:48.245Z,5.87
2018-05-08T06:21:16.299Z,6.80
2018-05-08T06:23:44.386Z,6.20
2018-05-08T06:26:12.429Z,5.87
2018-05-08T06:28:40.501Z,5.90
2018-05-08T06:31:08.588Z,6.10
2018-05-08T06:33:38.182Z,6.17
2018-05-08T06:36:06.243Z,6.23
2018-05-08T06:38:34.384Z,5.73
2018-05-08T06:41:02.405Z,5.10
2018-05-08T06:43:30.488Z,4.83
2018-05-08T06:45:58.549Z,5.23
2018-05-08T06:48:26.601Z,5.90
2018-05-08T06:50:54.670Z,5.43
2018-05-08T06:53:22.761Z,5.00
2018-05-08T06:55:50.815Z,5.43
2018-05-08T06:58:19.767Z,5.60
2018-05-08T07:00:48.607Z,5.70
2018-05-08T07:03:16.670Z,5.23
2018-05-08T07:05:44.723Z,6.33
2018-05-08T07:08:12.790Z,5.77
2018-05-08T07:10:40.879Z,5.40
2018-05-08T07:13:08.929Z,5.70
2018-05-08T07:15:37.049Z,6.00
2018-05-08T07:18:05.072Z,4.93
2018-05-08T07:20:33.135Z,5.30
2018-05-08T07:23:01.214Z,8.63
2018-05-08T07:25:29.319Z,5.40
2018-05-08T07:27:57.356Z,5.20
2018-05-08T07:30:25.406Z,5.07
2018-05-08T07:32:54.249Z,5.43
2018-05-08T07:35:22.322Z,5.43
2018-05-08T07:37:50.383Z,5.30
2018-05-08T07:40:18.446Z,5.70
2018-05-08T07:42:46.528Z,5.60
2018-05-08T07:45:14.572Z,4.87
2018-05-08T07:47:42.659Z,5.37
2018-05-08T07:50:10.722Z,4.83
2018-05-08T07:52:38.786Z,5.47
2018-05-08T07:55:06.856Z,4.70
2018-05-08T07:57:35.669Z,5.30
2018-05-08T08:00:03.756Z,4.80
2018-05-08T08:02:31.842Z,4.60
2018-05-08T08:04:59.871Z,6.23
2018-05-08T08:07:27.971Z,6.10
2018-05-08T08:09:56.430Z,5.00
2018-05-08T08:12:24.646Z,5.43
2018-05-08T08:14:52.565Z,4.70
2018-05-08T08:17:20.642Z,5.33
2018-05-08T08:19:48.706Z,5.33
2018-05-08T08:22:16.781Z,4.80
2018-05-08T08:24:44.842Z,5.60
2018-05-08T08:27:13.601Z,4.30
2018-05-08T08:29:41.670Z,6.50
2018-05-08T08:32:09.755Z,5.03
2018-05-08T08:34:38.578Z,6.10
2018-05-08T08:37:06.642Z,4.67
2018-05-08T08:39:34.749Z,4.43
2018-05-08T08:42:02.819Z,5.10
2018-05-08T08:44:30.849Z,4.50
2018-05-08T08:46:58.970Z,5.60
2018-05-08T08:49:26.995Z,4.07
2018-05-08T08:51:55.041Z,6.40
2018-05-08T08:54:23.121Z,4.50
2018-05-08T08:56:51.931Z,4.43
2018-05-08T08:59:20.002Z,4.87
2018-05-08T09:01:48.037Z,4.33
2018-05-08T09:04:16.098Z,4.67
2018-05-08T09:06:44.141Z,4.50
2018-05-08T09:09:12.213Z,4.50
2018-05-08T09:11:40.293Z,5.37
2018-05-08T09:14:08.394Z,4.40
2018-05-08T09:16:36.465Z,4.20
2018-05-08T09:19:04.558Z,4.17
2018-05-08T09:21:32.602Z,4.40
2018-05-08T09:24:00.679Z,4.90
2018-05-08T09:26:28.746Z,3.43
2018-05-08T09:28:56.818Z,4.40
2018-05-08T09:31:25.261Z,3.23
2018-05-08T09:33:54.142Z,3.30
2018-05-08T09:36:22.948Z,3.17
2018-05-08T09:38:51.006Z,3.10
2018-05-08T09:41:19.078Z,2.87
2018-05-08T09:43:47.143Z,2.63
2018-05-08T09:46:15.229Z,3.17
2018-05-08T09:48:43.308Z,2.50
2018-05-08T09:51:11.378Z,2.63
2018-05-08T09:53:39.448Z,2.93
2018-05-08T09:56:07.497Z,3.67
2018-05-08T09:58:35.577Z,4.13
2018-05-08T10:01:03.727Z,3.40
2018-05-08T10:03:31.733Z,2.50
2018-05-08T10:05:59.778Z,2.87
2018-05-08T10:08:27.869Z,3.50
2018-05-08T10:10:56.657Z,2.80
2018-05-08T10:13:24.710Z,2.47
2018-05-08T10:15:52.793Z,3.07
2018-05-08T10:18:20.832Z,2.23
2018-05-08T10:20:49.685Z,2.00
2018-05-08T10:23:17.759Z,3.00
2018-05-08T10:25:45.797Z,3.17
2018-05-08T10:28:13.859Z,4.40
2018-05-08T10:30:43.248Z,2.63
2018-05-08T10:33:11.296Z,4.00
2018-05-08T10:35:40.108Z,2.63
2018-05-08T10:38:08.178Z,3.83
2018-05-08T10:40:36.226Z,2.60
2018-05-08T10:43:05.791Z,4.60
2018-05-08T10:45:33.878Z,3.60
2018-05-08T10:48:01.953Z,2.77
2018-05-08T10:50:30.714Z,2.97
2018-05-08T10:52:59.524Z,3.40
2018-05-08T10:55:27.591Z,3.93
2018-05-08T10:57:56.426Z,4.20
2018-05-08T11:00:25.229Z,3.63
2018-05-08T11:02:53.341Z,2.47
2018-05-08T11:05:21.399Z,3.10
2018-05-08T11:07:49.468Z,2.87
2018-05-08T11:10:17.513Z,3.50
2018-05-08T11:12:45.587Z,2.80
2018-05-08T11:15:13.639Z,4.03
2018-05-08T11:17:43.064Z,3.83
2018-05-08T11:20:11.042Z,3.33
2018-05-08T11:22:39.118Z,3.63
2018-05-08T11:25:07.211Z,3.37
2018-05-08T11:27:35.387Z,3.63
2018-05-08T11:30:03.430Z,3.30
2018-05-08T11:32:31.579Z,2.90
2018-05-08T11:34:59.611Z,16.63
2018-05-08T11:37:27.667Z,4.17
2018-05-08T11:39:56.633Z,4.03
2018-05-08T11:42:24.708Z,3.97
2018-05-08T11:44:52.771Z,3.67
2018-05-08T11:47:20.857Z,3.10
2018-05-08T11:49:48.920Z,4.07
2018-05-08T11:52:16.990Z,3.60
2018-05-08T11:54:45.050Z,3.73
2018-05-08T11:57:13.114Z,3.90
2018-05-08T11:59:41.186Z,3.93
2018-05-08T12:02:09.254Z,3.60
2018-05-08T12:04:37.326Z,3.30
2018-05-08T12:07:05.381Z,3.23
2018-05-08T12:09:34.216Z,3.90
2018-05-08T12:12:02.286Z,4.40
2018-05-08T12:14:30.353Z,4.43
2018-05-08T12:16:58.444Z,3.60
2018-05-08T12:19:27.283Z,3.20
2018-05-08T12:21:56.289Z,3.20
2018-05-08T12:24:24.176Z,3.83
2018-05-08T12:26:52.229Z,4.30
2018-05-08T12:29:20.282Z,3.47
2018-05-08T12:31:49.091Z,4.60
2018-05-08T12:34:17.184Z,3.20
2018-05-08T12:36:45.222Z,4.17
2018-05-08T12:39:13.273Z,3.77
2018-05-08T12:41:41.752Z,4.43
2018-05-08T12:44:09.849Z,3.73
2018-05-08T12:46:37.921Z,3.40
2018-05-08T12:49:06.726Z,3.30
2018-05-08T12:51:34.778Z,3.63
2018-05-08T12:54:02.827Z,3.13
2018-05-08T12:56:30.974Z,3.43
2018-05-08T12:58:59.820Z,3.23
2018-05-08T13:01:27.770Z,3.00
2018-05-08T13:03:56.600Z,3.57
2018-05-08T13:06:24.649Z,2.90
2018-05-08T13:08:52.723Z,3.27
2018-05-08T13:11:20.787Z,3.03
2018-05-08T13:13:48.866Z,3.37
2018-05-08T13:16:16.916Z,2.70
2018-05-08T13:18:45.715Z,3.23
2018-05-08T13:21:13.785Z,2.93
2018-05-08T13:23:42.618Z,2.73
2018-05-08T13:26:11.369Z,3.43
2018-05-08T13:28:39.431Z,3.00
2018-05-08T13:31:07.570Z,3.63
2018-05-08T13:33:35.535Z,2.70
2018-05-08T13:36:03.589Z,3.27
2018-05-08T13:38:31.659Z,2.93
2018-05-08T13:40:59.690Z,3.30
2018-05-08T13:43:27.742Z,3.33
2018-05-08T13:45:55.813Z,3.47
2018-05-08T13:48:23.862Z,3.40
2018-05-08T13:50:51.974Z,3.00
2018-05-08T13:53:20.761Z,2.20
2018-05-08T13:55:49.627Z,2.93
2018-05-08T13:58:17.714Z,3.20
2018-05-08T14:00:46.514Z,2.83
2018-05-08T14:03:14.586Z,2.63
2018-05-08T14:05:42.611Z,2.73
2018-05-08T14:08:10.976Z,3.03
2018-05-08T14:10:39.010Z,2.50
2018-05-08T14:13:07.869Z,2.57
2018-05-08T14:15:35.845Z,3.13
2018-05-08T14:18:04.681Z,2.70
2018-05-08T14:20:32.769Z,3.50
2018-05-08T14:23:00.904Z,2.80
2018-05-08T14:25:28.937Z,2.90
2018-05-08T14:27:56.998Z,2.43
2018-05-08T14:30:25.069Z,2.30
2018-05-08T14:32:54.721Z,3.20
2018-05-08T14:35:22.774Z,2.73
2018-05-08T14:37:50.808Z,2.50
2018-05-08T14:40:18.875Z,2.90
2018-05-08T14:42:46.962Z,3.20
2018-05-08T14:45:15.863Z,2.97
2018-05-08T14:47:43.937Z,2.83
2018-05-08T14:50:12.006Z,2.87
2018-05-08T14:52:40.079Z,2.43
2018-05-08T14:55:09.349Z,2.77
2018-05-08T14:57:37.416Z,3.03
2018-05-08T15:00:05.492Z,2.27
2018-05-08T15:02:33.970Z,2.33
2018-05-08T15:05:02.018Z,3.10
2018-05-08T15:07:30.051Z,3.27
2018-05-08T15:09:58.130Z,3.60
2018-05-08T15:12:27.312Z,2.80
2018-05-08T15:14:55.373Z,2.70
2018-05-08T15:17:23.426Z,2.70
2018-05-08T15:19:51.501Z,2.90
2018-05-08T15:22:19.568Z,3.50
2018-05-08T15:24:47.639Z,4.80
2018-05-08T15:27:15.726Z,2.93
2018-05-08T15:29:43.786Z,2.87
2018-05-08T15:32:11.917Z,2.70
2018-05-08T15:34:40.050Z,3.40
2018-05-08T15:37:08.039Z,3.03
2018-05-08T15:39:36.086Z,3.10
2018-05-08T15:42:04.135Z,3.37
2018-05-08T15:44:32.181Z,2.83
2018-05-08T15:47:00.237Z,3.80
2018-05-08T15:49:29.060Z,3.33
2018-05-08T15:51:57.142Z,3.30
2018-05-08T15:54:25.205Z,2.67
2018-05-08T15:56:55.239Z,2.93
2018-05-08T15:59:24.047Z,4.53
2018-05-08T16:01:52.119Z,3.50
2018-05-08T16:04:20.165Z,3.27
2018-05-08T16:06:48.298Z,3.70
2018-05-08T16:09:16.449Z,3.40
2018-05-08T16:11:44.510Z,3.80
2018-05-08T16:14:12.601Z,3.17
2018-05-08T16:16:41.458Z,3.37
2018-05-08T16:19:09.504Z,3.40
2018-05-08T16:21:38.039Z,3.40
2018-05-08T16:24:06.870Z,3.03
2018-05-08T16:26:35.020Z,3.20
2018-05-08T16:29:03.050Z,3.10
2018-05-08T16:31:31.095Z,3.30
2018-05-08T16:33:59.183Z,3.80
2018-05-08T16:36:27.218Z,3.07
2018-05-08T16:38:55.266Z,2.90
2018-05-08T16:41:24.083Z,3.40
2018-05-08T16:43:52.730Z,3.40
2018-05-08T16:46:21.556Z,3.63
2018-05-08T16:48:49.605Z,3.30
2018-05-08T16:51:17.663Z,3.40
2018-05-08T16:53:46.502Z,3.53
2018-05-08T16:56:14.577Z,3.30
2018-05-08T16:58:42.646Z,3.60
2018-05-08T17:01:10.807Z,3.10
2018-05-08T17:03:39.613Z,3.23
2018-05-08T17:06:07.681Z,3.93
2018-05-08T17:08:35.746Z,3.57
2018-05-08T17:11:03.807Z,4.20
2018-05-08T17:13:31.883Z,3.57
2018-05-08T17:16:00.018Z,3.60
2018-05-08T17:18:28.852Z,3.80
2018-05-08T17:20:56.898Z,3.83
2018-05-08T17:23:24.973Z,3.20
2018-05-08T17:25:53.043Z,3.53
2018-05-08T17:28:21.081Z,3.60
2018-05-08T17:30:49.953Z,4.43
2018-05-08T17:33:18.023Z,3.97
2018-05-08T17:35:46.045Z,3.80
2018-05-08T17:38:14.113Z,3.50
2018-05-08T17:40:42.143Z,4.97
2018-05-08T17:43:10.231Z,4.77
2018-05-08T17:45:39.039Z,3.83
2018-05-08T17:48:07.876Z,3.83
2018-05-08T17:50:35.908Z,4.40
2018-05-08T17:53:03.983Z,4.20
2018-05-08T17:55:32.666Z,3.57
2018-05-08T17:58:00.732Z,3.70
2018-05-08T18:00:28.802Z,3.63
2018-05-08T18:02:56.870Z,3.93
2018-05-08T18:05:25.763Z,4.57
2018-05-08T18:07:53.763Z,5.00
2018-05-08T18:10:21.815Z,4.20
2018-05-08T18:12:49.961Z,4.57
2018-05-08T18:15:17.958Z,4.60
2018-05-08T18:17:46.126Z,4.60
2018-05-08T18:20:14.083Z,4.83
2018-05-08T18:22:42.113Z,4.70
2018-05-08T18:25:10.203Z,4.43
2018-05-08T18:27:38.254Z,3.93
2018-05-08T18:30:06.304Z,4.60
2018-05-08T18:32:34.399Z,4.10
2018-05-08T18:35:02.465Z,4.40
2018-05-08T18:37:30.513Z,4.67
2018-05-08T18:39:58.596Z,4.03
2018-05-08T18:42:26.631Z,4.60
2018-05-08T18:44:54.698Z,4.43
2018-05-08T18:47:22.764Z,4.07
2018-05-08T18:49:51.663Z,4.80
2018-05-08T18:52:19.691Z,5.77
2018-05-08T18:54:47.788Z,4.30
2018-05-08T18:57:15.844Z,4.67
2018-05-08T18:59:43.880Z,4.57
2018-05-08T19:02:11.949Z,4.37
2018-05-08T19:04:40.015Z,4.10
2018-05-08T19:07:08.545Z,4.10
2018-05-08T19:09:36.570Z,4.23
2018-05-08T19:12:04.642Z,4.87
2018-05-08T19:14:32.686Z,5.00
2018-05-08T19:17:01.498Z,4.93
2018-05-08T19:19:35.301Z,4.10
2018-05-08T19:22:03.729Z,4.70
2018-05-08T19:24:33.723Z,4.23
2018-05-08T19:27:01.793Z,4.20
2018-05-08T19:29:35.498Z,4.90
2018-05-08T19:32:03.714Z,5.10
2018-05-08T19:34:37.333Z,4.00
2018-05-08T19:37:11.020Z,4.17
2018-05-08T19:39:39.878Z,4.53
2018-05-08T19:42:07.931Z,4.40
2018-05-08T19:44:36.036Z,4.90
2018-05-08T19:47:04.063Z,4.30
2018-05-08T19:49:32.129Z,4.60
2018-05-08T19:52:00.232Z,4.40
2018-05-08T19:54:28.271Z,4.10
2018-05-08T19:56:56.347Z,4.60
2018-05-08T19:59:24.403Z,4.13
2018-05-08T20:01:52.478Z,4.30
2018-05-08T20:04:21.090Z,4.27
2018-05-08T20:06:53.534Z,4.40
2018-05-08T20:09:23.031Z,4.53
2018-05-08T20:11:51.151Z,4.57
2018-05-08T20:14:19.258Z,5.10
2018-05-08T20:16:48.058Z,4.20
2018-05-08T20:19:16.890Z,4.50
2018-05-08T20:21:45.047Z,4.27
2018-05-08T20:24:13.109Z,4.57
2018-05-08T20:26:41.790Z,4.60
2018-05-08T20:29:10.633Z,4.80
2018-05-08T20:31:38.705Z,4.50
2018-05-08T20:34:06.761Z,5.17
2018-05-08T20:36:34.797Z,4.10
2018-05-08T20:39:04.941Z,3.90
2018-05-08T20:41:33.209Z,5.00
2018-05-08T20:44:01.299Z,4.60
2018-05-08T20:46:29.454Z,4.60
2018-05-08T20:48:59.324Z,4.93
2018-05-08T20:51:27.609Z,4.30
2018-05-08T20:53:55.796Z,4.23
2018-05-08T20:56:24.672Z,4.30
2018-05-08T20:58:53.549Z,5.17
2018-05-08T21:01:22.593Z,4.37
2018-05-08T21:03:50.599Z,4.63
2018-05-08T21:06:18.686Z,4.80
2018-05-08T21:08:46.729Z,4.37
2018-05-08T21:11:15.055Z,3.90
2018-05-08T21:13:43.846Z,4.73
2018-05-08T21:16:11.935Z,4.70
2018-05-08T21:18:40.000Z,4.27
2018-05-08T21:21:08.050Z,4.77
2018-05-08T21:23:36.862Z,4.47
2018-05-08T21:26:04.912Z,5.13
2018-05-08T21:28:39.333Z,4.70
2018-05-08T21:31:14.162Z,4.50
2018-05-08T21:33:42.985Z,4.60
2018-05-08T21:36:11.041Z,5.10
2018-05-08T21:38:39.104Z,4.37
2018-05-08T21:41:07.163Z,23.30
2018-05-08T21:43:35.974Z,25.63
2018-05-08T21:46:04.037Z,54.40
2018-05-08T21:48:32.175Z,20.53
2018-05-08T21:51:00.253Z,21.07
2018-05-08T21:53:29.070Z,4.30
2018-05-08T21:55:57.144Z,4.80
2018-05-08T21:58:26.342Z,4.33
2018-05-08T22:00:54.413Z,5.27
2018-05-08T22:03:22.475Z,4.30
2018-05-08T22:05:50.549Z,4.90
2018-05-08T22:08:18.621Z,6.93
2018-05-08T22:10:46.694Z,5.17
2018-05-08T22:13:15.488Z,4.10
2018-05-08T22:15:43.545Z,4.50
2018-05-08T22:18:12.346Z,4.90
2018-05-08T22:20:40.416Z,4.93
2018-05-08T22:23:08.489Z,4.57
2018-05-08T22:25:37.341Z,4.90
2018-05-08T22:28:05.380Z,5.13
2018-05-08T22:30:33.485Z,5.60
2018-05-08T22:33:01.541Z,5.50
2018-05-08T22:35:29.593Z,4.50
2018-05-08T22:37:57.724Z,5.00
2018-05-08T22:40:25.790Z,4.70
2018-05-08T22:42:53.877Z,4.73
2018-05-08T22:45:21.929Z,5.00
2018-05-08T22:47:50.783Z,5.10
2018-05-08T22:50:18.857Z,5.50
2018-05-08T22:52:46.944Z,4.80
2018-05-08T22:55:15.001Z,5.37
2018-05-08T22:57:43.123Z,5.00
2018-05-08T23:00:11.197Z,4.93
2018-05-08T23:02:40.022Z,5.20
2018-05-08T23:05:08.047Z,4.70
2018-05-08T23:07:36.130Z,5.10
2018-05-08T23:10:04.180Z,4.53
2018-05-08T23:12:32.238Z,5.53
2018-05-08T23:15:00.311Z,5.80
2018-05-08T23:17:28.348Z,4.83
2018-05-08T23:19:56.394Z,5.40
2018-05-08T23:22:24.467Z,5.57
2018-05-08T23:24:52.572Z,5.00
2018-05-08T23:27:20.564Z,5.00
2018-05-08T23:29:48.634Z,5.10
2018-05-08T23:32:16.676Z,5.87
2018-05-08T23:34:44.732Z,5.47
2018-05-08T23:37:13.194Z,5.77
2018-05-08T23:39:41.228Z,5.00
2018-05-08T23:42:09.314Z,5.73
2018-05-08T23:44:37.776Z,5.10
2018-05-08T23:47:05.838Z,5.33
2018-05-08T23:49:33.874Z,5.90
2018-05-08T23:52:01.962Z,6.37
2018-05-08T23:54:31.839Z,6.00
2018-05-08T23:57:01.269Z,5.60
2018-05-08T23:59:29.251Z,5.43
